CCA856 EGLL-ZBAA
Flight info
| Callsign | CCA856 |
|---|---|
| Flight time | N/A |
| Altitude | 33000 |
| Route | BPK Q295 SOMVA DCT MAVAS DCT SPY DCT XEBOT DCT JUIST DCT DOSUR DCT KOTAM DCT EVONA/N0481F350 P862 NETNA DCT TUKMA P989 MEGAS/K0896F350 P989 OBIBA P997 AKUGI T635 SADER T580 ADMUR G117 XV R229 DILOR/K0883F370 R229 BA R104 GINOM/K0893S1130 Y655 INTIK A575 LHT B458 BIKUT W69 GUVBA GUVBA6J |
| Aircraft | B77W/H-SDE1E2E3FGHIJ2J3J4J5M1RWXY/LB1D1 |
Departure
| Time | 2026-04-30 19:04 |
|---|---|
| Airport | London Heathrow Airport (EGLL) |
Arrival
| Time | N/A |
|---|---|
| Airport | Beijing Capital International Airport (ZBAA) |
| Time | Latitude | Longitude | Altitude | Speed | Heading |
|---|---|---|---|---|---|
| 2026-04-30 18:19 | 51.47341 | -0.44195 | 85 ft | 0 kts | 270° |
| 2026-04-30 18:45 | 51.47342 | -0.44107 | 85 ft | 2 kts | 258° |
| 2026-04-30 18:45 | 51.47347 | -0.44085 | 85 ft | 2 kts | 231° |
| 2026-04-30 18:45 | 51.47358 | -0.44069 | 85 ft | 2 kts | 210° |
| 2026-04-30 18:46 | 51.47372 | -0.44061 | 85 ft | 2 kts | 188° |
| 2026-04-30 18:46 | 51.47387 | -0.44060 | 85 ft | 2 kts | 176° |
| 2026-04-30 18:46 | 51.47391 | -0.44061 | 85 ft | 0 kts | 176° |
| 2026-04-30 18:49 | 51.47387 | -0.44060 | 85 ft | 2 kts | 178° |
| 2026-04-30 18:49 | 51.47348 | -0.44059 | 85 ft | 7 kts | 179° |
| 2026-04-30 18:50 | 51.47296 | -0.44058 | 85 ft | 9 kts | 180° |
| 2026-04-30 18:50 | 51.47232 | -0.44058 | 85 ft | 8 kts | 181° |
| 2026-04-30 18:50 | 51.47174 | -0.44060 | 85 ft | 8 kts | 181° |
| 2026-04-30 18:50 | 51.47123 | -0.44060 | 85 ft | 6 kts | 180° |
| 2026-04-30 18:51 | 51.47078 | -0.44060 | 85 ft | 7 kts | 181° |
| 2026-04-30 18:51 | 51.47017 | -0.44060 | 85 ft | 9 kts | 179° |
| 2026-04-30 18:51 | 51.46952 | -0.44060 | 85 ft | 8 kts | 180° |
| 2026-04-30 18:51 | 51.46903 | -0.44059 | 85 ft | 6 kts | 179° |
| 2026-04-30 18:52 | 51.46866 | -0.44057 | 85 ft | 4 kts | 179° |
| 2026-04-30 18:52 | 51.46833 | -0.44057 | 85 ft | 6 kts | 180° |
| 2026-04-30 18:52 | 51.46776 | -0.44056 | 85 ft | 8 kts | 180° |
| 2026-04-30 18:52 | 51.46723 | -0.44056 | 85 ft | 6 kts | 180° |
| 2026-04-30 18:53 | 51.46684 | -0.44064 | 85 ft | 4 kts | 206° |
| 2026-04-30 18:53 | 51.46670 | -0.44106 | 85 ft | 5 kts | 260° |
| 2026-04-30 18:53 | 51.46666 | -0.44168 | 85 ft | 5 kts | 264° |
| 2026-04-30 18:53 | 51.46663 | -0.44238 | 85 ft | 6 kts | 270° |
| 2026-04-30 18:54 | 51.46662 | -0.44318 | 85 ft | 7 kts | 269° |
| 2026-04-30 18:54 | 51.46661 | -0.44404 | 85 ft | 8 kts | 270° |
| 2026-04-30 18:54 | 51.46662 | -0.44499 | 85 ft | 8 kts | 272° |
| 2026-04-30 18:54 | 51.46664 | -0.44599 | 85 ft | 9 kts | 270° |
| 2026-04-30 18:55 | 51.46664 | -0.44705 | 85 ft | 9 kts | 270° |
| 2026-04-30 18:55 | 51.46662 | -0.44931 | 85 ft | 10 kts | 269° |
| 2026-04-30 18:55 | 51.46662 | -0.45050 | 85 ft | 10 kts | 270° |
| 2026-04-30 18:56 | 51.46662 | -0.45300 | 85 ft | 11 kts | 270° |
| 2026-04-30 18:56 | 51.46662 | -0.45429 | 85 ft | 11 kts | 271° |
| 2026-04-30 18:56 | 51.46663 | -0.45560 | 85 ft | 11 kts | 270° |
| 2026-04-30 18:57 | 51.46665 | -0.45830 | 85 ft | 12 kts | 271° |
| 2026-04-30 18:57 | 51.46666 | -0.45968 | 85 ft | 12 kts | 269° |
| 2026-04-30 18:57 | 51.46659 | -0.46104 | 85 ft | 12 kts | 265° |
| 2026-04-30 18:58 | 51.46654 | -0.46385 | 85 ft | 12 kts | 270° |
| 2026-04-30 18:58 | 51.46653 | -0.46527 | 85 ft | 12 kts | 270° |
| 2026-04-30 18:58 | 51.46653 | -0.46637 | 85 ft | 6 kts | 270° |
| 2026-04-30 18:59 | 51.46653 | -0.46693 | 85 ft | 4 kts | 274° |
| 2026-04-30 19:00 | 51.46656 | -0.47042 | 85 ft | 16 kts | 271° |
| 2026-04-30 19:00 | 51.46658 | -0.47242 | 85 ft | 19 kts | 271° |
| 2026-04-30 19:00 | 51.46659 | -0.47687 | 85 ft | 17 kts | 265° |
| 2026-04-30 19:01 | 51.46652 | -0.48091 | 85 ft | 14 kts | 270° |
| 2026-04-30 19:01 | 51.46648 | -0.48162 | 85 ft | 5 kts | 248° |
| 2026-04-30 19:02 | 51.46584 | -0.48213 | 85 ft | 7 kts | 181° |
| 2026-04-30 19:02 | 51.46488 | -0.48150 | 85 ft | 8 kts | 113° |
| 2026-04-30 19:03 | 51.46479 | -0.48029 | 85 ft | 0 kts | 90° |
| 2026-04-30 19:03 | 51.46484 | -0.47072 | 85 ft | 98 kts | 90° |
| 2026-04-30 19:04 | 51.46496 | -0.43839 | 160 ft | 181 kts | 90° |
| 2026-04-30 19:04 | 51.46852 | -0.39900 | 1172 ft | 196 kts | 65° |
| 2026-04-30 19:05 | 51.48650 | -0.36267 | 1819 ft | 225 kts | 56° |
| 2026-04-30 19:05 | 51.50811 | -0.32094 | 2464 ft | 257 kts | 56° |
| 2026-04-30 19:06 | 51.52841 | -0.27330 | 3528 ft | 264 kts | 73° |
| 2026-04-30 19:06 | 51.53453 | -0.24588 | 4253 ft | 263 kts | 76° |
| 2026-04-30 19:06 | 51.54765 | -0.19032 | 5409 ft | 277 kts | 60° |
| 2026-04-30 19:07 | 51.58078 | -0.15738 | 5994 ft | 297 kts | 9° |
| 2026-04-30 19:07 | 51.60172 | -0.15474 | 6014 ft | 299 kts | 6° |
| 2026-04-30 19:08 | 51.64319 | -0.15171 | 6015 ft | 299 kts | 6° |
| 2026-04-30 19:08 | 51.68332 | -0.13769 | 6016 ft | 296 kts | 20° |
| 2026-04-30 19:08 | 51.70302 | -0.12844 | 6036 ft | 297 kts | 20° |
| 2026-04-30 19:09 | 51.73946 | -0.10011 | 5986 ft | 286 kts | 54° |
| 2026-04-30 19:09 | 51.74920 | -0.07283 | 6089 ft | 287 kts | 76° |
| 2026-04-30 19:09 | 51.75415 | -0.04249 | 6876 ft | 280 kts | 82° |
| 2026-04-30 19:10 | 51.76022 | 0.01878 | 8254 ft | 278 kts | 85° |
| 2026-04-30 19:10 | 51.76544 | 0.08166 | 9424 ft | 281 kts | 86° |
| 2026-04-30 19:11 | 51.76803 | 0.11309 | 10016 ft | 284 kts | 86° |
| 2026-04-30 19:11 | 51.77330 | 0.17761 | 10719 ft | 305 kts | 85° |
| 2026-04-30 19:11 | 51.77614 | 0.21264 | 10967 ft | 321 kts | 85° |
| 2026-04-30 19:12 | 51.77909 | 0.24890 | 11197 ft | 336 kts | 85° |
| 2026-04-30 19:12 | 51.78215 | 0.28676 | 11471 ft | 350 kts | 85° |
| 2026-04-30 19:12 | 51.78535 | 0.32646 | 11778 ft | 364 kts | 85° |
| 2026-04-30 19:13 | 51.79200 | 0.40942 | 12807 ft | 378 kts | 85° |
| 2026-04-30 19:13 | 51.79871 | 0.49394 | 14121 ft | 385 kts | 85° |
| 2026-04-30 19:13 | 51.80210 | 0.53693 | 14697 ft | 390 kts | 85° |
| 2026-04-30 19:14 | 51.80548 | 0.58016 | 15274 ft | 393 kts | 84° |
| 2026-04-30 19:14 | 51.80897 | 0.62388 | 15849 ft | 398 kts | 83° |
| 2026-04-30 19:14 | 51.81557 | 0.66784 | 16393 ft | 405 kts | 73° |
| 2026-04-30 19:14 | 51.82590 | 0.70998 | 16949 ft | 410 kts | 70° |
| 2026-04-30 19:15 | 51.83705 | 0.75270 | 17495 ft | 414 kts | 70° |
| 2026-04-30 19:15 | 51.85945 | 0.83882 | 18581 ft | 421 kts | 70° |
| 2026-04-30 19:15 | 51.87072 | 0.88234 | 19134 ft | 424 kts | 70° |
| 2026-04-30 19:16 | 51.88195 | 0.92590 | 19702 ft | 426 kts | 70° |
| 2026-04-30 19:16 | 51.89339 | 0.97035 | 20263 ft | 428 kts | 70° |
| 2026-04-30 19:16 | 51.91629 | 1.05969 | 21308 ft | 434 kts | 70° |
| 2026-04-30 19:17 | 51.92775 | 1.10451 | 21786 ft | 438 kts | 70° |
| 2026-04-30 19:17 | 51.95100 | 1.19583 | 22764 ft | 443 kts | 70° |
| 2026-04-30 19:17 | 51.96277 | 1.24219 | 23249 ft | 446 kts | 70° |
| 2026-04-30 19:18 | 51.97850 | 1.30429 | 23862 ft | 449 kts | 70° |
| 2026-04-30 19:18 | 51.99817 | 1.38223 | 24599 ft | 453 kts | 70° |
| 2026-04-30 19:18 | 52.01006 | 1.42945 | 25014 ft | 456 kts | 70° |
| 2026-04-30 19:19 | 52.02213 | 1.47747 | 25451 ft | 458 kts | 70° |
| 2026-04-30 19:19 | 52.03407 | 1.52514 | 25882 ft | 460 kts | 70° |
| 2026-04-30 19:19 | 52.05814 | 1.62149 | 26620 ft | 467 kts | 70° |
| 2026-04-30 19:20 | 52.07034 | 1.67047 | 26982 ft | 470 kts | 70° |
| 2026-04-30 19:20 | 52.08267 | 1.72012 | 27405 ft | 472 kts | 71° |
| 2026-04-30 19:20 | 52.10719 | 1.81913 | 28155 ft | 477 kts | 70° |
| 2026-04-30 19:21 | 52.11959 | 1.86939 | 28505 ft | 480 kts | 71° |
| 2026-04-30 19:21 | 52.14466 | 1.97134 | 29213 ft | 485 kts | 70° |
| 2026-04-30 19:22 | 52.16975 | 2.07384 | 30092 ft | 485 kts | 70° |
| 2026-04-30 19:22 | 52.20684 | 2.22620 | 31254 ft | 484 kts | 70° |
| 2026-04-30 19:23 | 52.24378 | 2.37903 | 31264 ft | 480 kts | 70° |
| 2026-04-30 19:24 | 52.28034 | 2.53137 | 31276 ft | 481 kts | 70° |
| 2026-04-30 19:25 | 52.33277 | 2.78869 | 31281 ft | 479 kts | 76° |
| 2026-04-30 19:26 | 52.36955 | 2.99887 | 31289 ft | 480 kts | 76° |
| 2026-04-30 19:27 | 52.39670 | 3.15698 | 31279 ft | 480 kts | 78° |
| 2026-04-30 19:28 | 52.41250 | 3.31946 | 31285 ft | 479 kts | 83° |
| 2026-04-30 19:29 | 52.43166 | 3.53492 | 31291 ft | 478 kts | 82° |
| 2026-04-30 19:30 | 52.45050 | 3.75114 | 31302 ft | 478 kts | 83° |
| 2026-04-30 19:31 | 52.46900 | 3.96807 | 31304 ft | 480 kts | 83° |
| 2026-04-30 19:31 | 52.48257 | 4.13036 | 31307 ft | 480 kts | 83° |
| 2026-04-30 19:32 | 52.49149 | 4.23857 | 31305 ft | 478 kts | 83° |
| 2026-04-30 19:32 | 52.50031 | 4.34688 | 31314 ft | 479 kts | 83° |
| 2026-04-30 19:33 | 52.50903 | 4.45512 | 31317 ft | 479 kts | 83° |
| 2026-04-30 19:33 | 52.51758 | 4.56252 | 31321 ft | 479 kts | 82° |
| 2026-04-30 19:34 | 52.52610 | 4.67087 | 31325 ft | 479 kts | 83° |
| 2026-04-30 19:35 | 52.54299 | 4.83298 | 31324 ft | 480 kts | 72° |
| 2026-04-30 19:35 | 52.57292 | 4.93030 | 31328 ft | 481 kts | 56° |
| 2026-04-30 19:36 | 52.61230 | 5.01778 | 31333 ft | 481 kts | 54° |
| 2026-04-30 19:36 | 52.67203 | 5.15087 | 31338 ft | 480 kts | 54° |
| 2026-04-30 19:37 | 52.71141 | 5.23957 | 31346 ft | 482 kts | 54° |
| 2026-04-30 19:37 | 52.75029 | 5.32765 | 31346 ft | 476 kts | 54° |
| 2026-04-30 19:38 | 52.78957 | 5.41708 | 31352 ft | 484 kts | 54° |
| 2026-04-30 19:38 | 52.82864 | 5.50641 | 31356 ft | 480 kts | 54° |
| 2026-04-30 19:39 | 52.86750 | 5.59561 | 31365 ft | 480 kts | 54° |
| 2026-04-30 19:39 | 52.90640 | 5.68521 | 31368 ft | 480 kts | 55° |
| 2026-04-30 19:40 | 52.94514 | 5.77480 | 31373 ft | 480 kts | 55° |
| 2026-04-30 19:40 | 52.98388 | 5.86469 | 31375 ft | 479 kts | 54° |
| 2026-04-30 19:41 | 53.02219 | 5.95390 | 31382 ft | 479 kts | 54° |
| 2026-04-30 19:41 | 53.06104 | 6.04469 | 31386 ft | 480 kts | 54° |
| 2026-04-30 19:42 | 53.09940 | 6.13466 | 31388 ft | 480 kts | 54° |
| 2026-04-30 19:42 | 53.13800 | 6.22552 | 31392 ft | 479 kts | 54° |
| 2026-04-30 19:43 | 53.17603 | 6.31535 | 31389 ft | 479 kts | 54° |
| 2026-04-30 19:44 | 53.23333 | 6.45132 | 31385 ft | 478 kts | 54° |
| 2026-04-30 19:44 | 53.27134 | 6.54192 | 31391 ft | 478 kts | 54° |
| 2026-04-30 19:45 | 53.31113 | 6.63053 | 31385 ft | 478 kts | 46° |
| 2026-04-30 19:45 | 53.36252 | 6.70004 | 31401 ft | 479 kts | 34° |
| 2026-04-30 19:46 | 53.41867 | 6.76122 | 31400 ft | 478 kts | 33° |
| 2026-04-30 19:46 | 53.47430 | 6.82232 | 31401 ft | 477 kts | 34° |
| 2026-04-30 19:47 | 53.53017 | 6.88413 | 31403 ft | 477 kts | 34° |
| 2026-04-30 19:47 | 53.58252 | 6.95354 | 31408 ft | 476 kts | 44° |
| 2026-04-30 19:48 | 53.62962 | 7.03229 | 31408 ft | 476 kts | 45° |
| 2026-04-30 19:48 | 53.67679 | 7.11175 | 31417 ft | 476 kts | 45° |
| 2026-04-30 19:49 | 53.72339 | 7.19049 | 31421 ft | 476 kts | 45° |
| 2026-04-30 19:49 | 53.79321 | 7.30896 | 31424 ft | 476 kts | 45° |
| 2026-04-30 19:50 | 53.83967 | 7.38813 | 31422 ft | 476 kts | 44° |
| 2026-04-30 19:50 | 53.88605 | 7.46743 | 31423 ft | 475 kts | 44° |
| 2026-04-30 19:51 | 53.93215 | 7.54650 | 31426 ft | 475 kts | 44° |
| 2026-04-30 19:51 | 53.97842 | 7.62613 | 31425 ft | 474 kts | 44° |
| 2026-04-30 19:52 | 54.02465 | 7.70595 | 31426 ft | 475 kts | 45° |
| 2026-04-30 19:52 | 54.07105 | 7.78636 | 31427 ft | 475 kts | 45° |
| 2026-04-30 19:53 | 54.11727 | 7.86671 | 31432 ft | 475 kts | 45° |
| 2026-04-30 19:53 | 54.16337 | 7.94714 | 31433 ft | 475 kts | 45° |
| 2026-04-30 19:54 | 54.20953 | 8.02793 | 31433 ft | 474 kts | 45° |
| 2026-04-30 19:54 | 54.25545 | 8.10859 | 31433 ft | 473 kts | 45° |
| 2026-04-30 19:55 | 54.30145 | 8.18964 | 31434 ft | 474 kts | 45° |
| 2026-04-30 19:55 | 54.34700 | 8.27021 | 31436 ft | 474 kts | 45° |
| 2026-04-30 19:56 | 54.39278 | 8.35144 | 31442 ft | 474 kts | 45° |
| 2026-04-30 19:56 | 54.43820 | 8.43230 | 31446 ft | 473 kts | 44° |
| 2026-04-30 19:57 | 54.48381 | 8.51380 | 31444 ft | 473 kts | 44° |
| 2026-04-30 19:57 | 54.52921 | 8.59518 | 31441 ft | 473 kts | 45° |
| 2026-04-30 19:58 | 54.57455 | 8.67674 | 31440 ft | 472 kts | 45° |
| 2026-04-30 19:58 | 54.61953 | 8.75793 | 31437 ft | 472 kts | 45° |
| 2026-04-30 19:59 | 54.66465 | 8.83965 | 31439 ft | 473 kts | 45° |
| 2026-04-30 20:00 | 54.73266 | 8.96336 | 31435 ft | 472 kts | 45° |
| 2026-04-30 20:00 | 54.77761 | 9.04551 | 31427 ft | 471 kts | 45° |
| 2026-04-30 20:01 | 54.84412 | 9.17032 | 31420 ft | 472 kts | 51° |
| 2026-04-30 20:01 | 54.87714 | 9.27060 | 31431 ft | 475 kts | 63° |
| 2026-04-30 20:02 | 54.91779 | 9.42733 | 31436 ft | 475 kts | 64° |
| 2026-04-30 20:03 | 54.95788 | 9.58473 | 31441 ft | 475 kts | 64° |
| 2026-04-30 20:03 | 54.98417 | 9.68893 | 31440 ft | 474 kts | 64° |
| 2026-04-30 20:04 | 55.01055 | 9.79407 | 31444 ft | 474 kts | 64° |
| 2026-04-30 20:05 | 55.04952 | 9.95045 | 31448 ft | 472 kts | 64° |
| 2026-04-30 20:05 | 55.08855 | 10.10822 | 31443 ft | 474 kts | 64° |
| 2026-04-30 20:06 | 55.11444 | 10.21351 | 31449 ft | 474 kts | 64° |
| 2026-04-30 20:06 | 55.14027 | 10.31907 | 31441 ft | 474 kts | 64° |
| 2026-04-30 20:07 | 55.16592 | 10.42445 | 31442 ft | 474 kts | 64° |
| 2026-04-30 20:08 | 55.20451 | 10.58391 | 31431 ft | 475 kts | 64° |
| 2026-04-30 20:08 | 55.23002 | 10.68997 | 31421 ft | 476 kts | 65° |
| 2026-04-30 20:09 | 55.25549 | 10.79639 | 31417 ft | 475 kts | 65° |
| 2026-04-30 20:09 | 55.29353 | 10.95628 | 31425 ft | 476 kts | 65° |
| 2026-04-30 20:10 | 55.33143 | 11.11681 | 31426 ft | 476 kts | 65° |
| 2026-04-30 20:11 | 55.36936 | 11.27867 | 31912 ft | 479 kts | 65° |
| 2026-04-30 20:11 | 55.38171 | 11.33169 | 32496 ft | 473 kts | 65° |
| 2026-04-30 20:11 | 55.39407 | 11.38483 | 32974 ft | 470 kts | 65° |
| 2026-04-30 20:12 | 55.41870 | 11.49108 | 33409 ft | 472 kts | 65° |
| 2026-04-30 20:12 | 55.43108 | 11.54470 | 33421 ft | 473 kts | 65° |
| 2026-04-30 20:13 | 55.45556 | 11.65114 | 33419 ft | 472 kts | 66° |
| 2026-04-30 20:13 | 55.48005 | 11.75819 | 33423 ft | 471 kts | 66° |
| 2026-04-30 20:14 | 55.50482 | 11.86697 | 33426 ft | 471 kts | 66° |
| 2026-04-30 20:14 | 55.52891 | 11.97330 | 33428 ft | 470 kts | 66° |
| 2026-04-30 20:15 | 55.55298 | 12.08009 | 33422 ft | 470 kts | 66° |
| 2026-04-30 20:15 | 55.57702 | 12.18733 | 33425 ft | 470 kts | 66° |
| 2026-04-30 20:16 | 55.60090 | 12.29437 | 33421 ft | 470 kts | 66° |
| 2026-04-30 20:16 | 55.62466 | 12.40145 | 33420 ft | 470 kts | 66° |
| 2026-04-30 20:17 | 55.64840 | 12.50899 | 33416 ft | 469 kts | 66° |
| 2026-04-30 20:17 | 55.67202 | 12.61649 | 33412 ft | 469 kts | 66° |
| 2026-04-30 20:18 | 55.69537 | 12.72334 | 33407 ft | 469 kts | 66° |
| 2026-04-30 20:18 | 55.71876 | 12.83098 | 33400 ft | 468 kts | 66° |
| 2026-04-30 20:19 | 55.74191 | 12.93802 | 33394 ft | 468 kts | 66° |
| 2026-04-30 20:19 | 55.76516 | 13.04607 | 33397 ft | 469 kts | 66° |
| 2026-04-30 20:20 | 55.78821 | 13.15381 | 33399 ft | 469 kts | 66° |
| 2026-04-30 20:20 | 55.81111 | 13.26137 | 33396 ft | 468 kts | 66° |
| 2026-04-30 20:21 | 55.83389 | 13.36899 | 33390 ft | 467 kts | 66° |
| 2026-04-30 20:21 | 55.85548 | 13.47146 | 33389 ft | 467 kts | 66° |
| 2026-04-30 20:22 | 55.87819 | 13.57980 | 33382 ft | 467 kts | 66° |
| 2026-04-30 20:22 | 55.90080 | 13.68832 | 33383 ft | 467 kts | 67° |
| 2026-04-30 20:23 | 55.92326 | 13.79664 | 33378 ft | 467 kts | 67° |
| 2026-04-30 20:23 | 55.94555 | 13.90473 | 33380 ft | 465 kts | 67° |
| 2026-04-30 20:24 | 55.96768 | 14.01266 | 33375 ft | 465 kts | 67° |
| 2026-04-30 20:24 | 55.98967 | 14.12044 | 33367 ft | 465 kts | 67° |
| 2026-04-30 20:25 | 56.02258 | 14.28286 | 33360 ft | 464 kts | 67° |
| 2026-04-30 20:26 | 56.05511 | 14.44475 | 33358 ft | 463 kts | 66° |
| 2026-04-30 20:26 | 56.08741 | 14.60684 | 33354 ft | 463 kts | 66° |
| 2026-04-30 20:27 | 56.13014 | 14.82328 | 33371 ft | 463 kts | 67° |
| 2026-04-30 20:28 | 56.17765 | 15.03495 | 33364 ft | 460 kts | 64° |
| 2026-04-30 20:30 | 56.23773 | 15.29973 | 33373 ft | 460 kts | 64° |
| 2026-04-30 20:31 | 56.30871 | 15.61827 | 33361 ft | 458 kts | 64° |
| 2026-04-30 20:32 | 56.36721 | 15.88471 | 33357 ft | 460 kts | 65° |
| 2026-04-30 20:33 | 56.40187 | 16.04423 | 33354 ft | 458 kts | 65° |
| 2026-04-30 20:34 | 56.43635 | 16.20409 | 33355 ft | 458 kts | 65° |
| 2026-04-30 20:35 | 56.47075 | 16.36487 | 33352 ft | 458 kts | 65° |
| 2026-04-30 20:35 | 56.50475 | 16.52508 | 33347 ft | 458 kts | 64° |
| 2026-04-30 20:36 | 56.52738 | 16.63237 | 33343 ft | 458 kts | 64° |
| 2026-04-30 20:37 | 56.56103 | 16.79300 | 33342 ft | 457 kts | 65° |
| 2026-04-30 20:37 | 56.58345 | 16.90074 | 33340 ft | 457 kts | 65° |
| 2026-04-30 20:38 | 56.60560 | 17.00777 | 33341 ft | 456 kts | 65° |
| 2026-04-30 20:38 | 56.62780 | 17.11561 | 33340 ft | 456 kts | 65° |
| 2026-04-30 20:39 | 56.66072 | 17.27656 | 33341 ft | 458 kts | 65° |
| 2026-04-30 20:40 | 56.69356 | 17.43843 | 33339 ft | 457 kts | 65° |
| 2026-04-30 20:40 | 56.71534 | 17.54652 | 33340 ft | 455 kts | 65° |
| 2026-04-30 20:41 | 56.74767 | 17.70808 | 33341 ft | 456 kts | 66° |
| 2026-04-30 20:41 | 56.76917 | 17.81626 | 33338 ft | 456 kts | 66° |
| 2026-04-30 20:42 | 56.79062 | 17.92477 | 33338 ft | 456 kts | 65° |
| 2026-04-30 20:43 | 56.82255 | 18.08746 | 33339 ft | 456 kts | 65° |
| 2026-04-30 20:43 | 56.84386 | 18.19677 | 33339 ft | 457 kts | 65° |
| 2026-04-30 20:44 | 56.87528 | 18.35907 | 33339 ft | 456 kts | 65° |
| 2026-04-30 20:45 | 56.91701 | 18.57681 | 33337 ft | 455 kts | 65° |
| 2026-04-30 20:45 | 56.93773 | 18.68583 | 33338 ft | 454 kts | 66° |
| 2026-04-30 20:46 | 56.97896 | 18.90460 | 33338 ft | 456 kts | 66° |
| 2026-04-30 20:47 | 57.00960 | 19.06883 | 33333 ft | 457 kts | 66° |
| 2026-04-30 20:48 | 57.04006 | 19.23361 | 33332 ft | 455 kts | 66° |
| 2026-04-30 20:48 | 57.06011 | 19.34281 | 33329 ft | 453 kts | 66° |
| 2026-04-30 20:49 | 57.08008 | 19.45222 | 33328 ft | 454 kts | 66° |
| 2026-04-30 20:50 | 57.10981 | 19.61630 | 33342 ft | 454 kts | 66° |
| 2026-04-30 20:50 | 57.12956 | 19.72610 | 33348 ft | 455 kts | 66° |
| 2026-04-30 20:51 | 57.14932 | 19.83664 | 33340 ft | 454 kts | 66° |
| 2026-04-30 20:51 | 57.18144 | 19.99825 | 33325 ft | 447 kts | 58° |
| 2026-04-30 20:52 | 57.20967 | 20.10038 | 33322 ft | 446 kts | 58° |
| 2026-04-30 20:53 | 57.25061 | 20.25272 | 33321 ft | 445 kts | 59° |
| 2026-04-30 20:53 | 57.27771 | 20.35567 | 33315 ft | 446 kts | 59° |
| 2026-04-30 20:54 | 57.31770 | 20.50946 | 33316 ft | 445 kts | 59° |
| 2026-04-30 20:55 | 57.35731 | 20.66329 | 33319 ft | 443 kts | 60° |
| 2026-04-30 20:55 | 57.38377 | 20.76674 | 33316 ft | 443 kts | 59° |
| 2026-04-30 20:56 | 57.42287 | 20.92055 | 33321 ft | 444 kts | 59° |
| 2026-04-30 20:57 | 57.46192 | 21.07529 | 33309 ft | 443 kts | 59° |
| 2026-04-30 20:57 | 57.48786 | 21.17871 | 33311 ft | 440 kts | 59° |
| 2026-04-30 20:58 | 57.52636 | 21.33307 | 33310 ft | 440 kts | 59° |
| 2026-04-30 20:58 | 57.55186 | 21.43591 | 33306 ft | 440 kts | 59° |
| 2026-04-30 20:59 | 57.59003 | 21.59076 | 33299 ft | 440 kts | 59° |
| 2026-04-30 21:00 | 57.64078 | 21.79831 | 33292 ft | 440 kts | 60° |
| 2026-04-30 21:01 | 57.67852 | 21.95397 | 33296 ft | 440 kts | 60° |
| 2026-04-30 21:02 | 57.71575 | 22.10921 | 33283 ft | 440 kts | 60° |
| 2026-04-30 21:02 | 57.74066 | 22.21384 | 33284 ft | 441 kts | 60° |
| 2026-04-30 21:03 | 57.76544 | 22.31847 | 33283 ft | 441 kts | 60° |
| 2026-04-30 21:03 | 57.79005 | 22.42287 | 33289 ft | 440 kts | 60° |
| 2026-04-30 21:04 | 57.81467 | 22.52776 | 33288 ft | 442 kts | 59° |
| 2026-04-30 21:04 | 57.85142 | 22.68535 | 33284 ft | 441 kts | 60° |
| 2026-04-30 21:05 | 57.87570 | 22.79014 | 33282 ft | 440 kts | 60° |
| 2026-04-30 21:05 | 57.89919 | 22.89620 | 33278 ft | 441 kts | 61° |
| 2026-04-30 21:06 | 57.92227 | 23.00210 | 33265 ft | 439 kts | 61° |
| 2026-04-30 21:06 | 57.94528 | 23.10794 | 33253 ft | 438 kts | 61° |
| 2026-04-30 21:07 | 57.96820 | 23.21385 | 33248 ft | 440 kts | 61° |
| 2026-04-30 21:07 | 57.99109 | 23.32010 | 33245 ft | 440 kts | 61° |
| 2026-04-30 21:08 | 58.01389 | 23.42649 | 33245 ft | 438 kts | 61° |
| 2026-04-30 21:08 | 58.03641 | 23.53213 | 33237 ft | 436 kts | 61° |
| 2026-04-30 21:09 | 58.05894 | 23.63827 | 33241 ft | 437 kts | 60° |
| 2026-04-30 21:09 | 58.08128 | 23.74408 | 33245 ft | 438 kts | 61° |
| 2026-04-30 21:10 | 58.10368 | 23.85076 | 33252 ft | 437 kts | 61° |
| 2026-04-30 21:10 | 58.12594 | 23.95732 | 33267 ft | 437 kts | 61° |
| 2026-04-30 21:11 | 58.14813 | 24.06409 | 33270 ft | 437 kts | 62° |
| 2026-04-30 21:11 | 58.17010 | 24.17044 | 33267 ft | 436 kts | 61° |
| 2026-04-30 21:12 | 58.19205 | 24.27717 | 33270 ft | 434 kts | 61° |
| 2026-04-30 21:12 | 58.21368 | 24.38288 | 33263 ft | 437 kts | 61° |
| 2026-04-30 21:13 | 58.23550 | 24.49012 | 33265 ft | 435 kts | 61° |
| 2026-04-30 21:13 | 58.25711 | 24.59695 | 33258 ft | 433 kts | 61° |
| 2026-04-30 21:14 | 58.27856 | 24.70342 | 33255 ft | 436 kts | 62° |
| 2026-04-30 21:14 | 58.29995 | 24.81030 | 33247 ft | 433 kts | 62° |
| 2026-04-30 21:15 | 58.32116 | 24.91684 | 33229 ft | 433 kts | 62° |
| 2026-04-30 21:15 | 58.34228 | 25.02344 | 33235 ft | 433 kts | 61° |
| 2026-04-30 21:16 | 58.36330 | 25.13016 | 33229 ft | 432 kts | 62° |
| 2026-04-30 21:16 | 58.38430 | 25.23728 | 33228 ft | 434 kts | 61° |
| 2026-04-30 21:17 | 58.40513 | 25.34425 | 33221 ft | 430 kts | 62° |
| 2026-04-30 21:17 | 58.42574 | 25.45050 | 33218 ft | 432 kts | 61° |
| 2026-04-30 21:18 | 58.44647 | 25.55808 | 33218 ft | 430 kts | 61° |
| 2026-04-30 21:18 | 58.46695 | 25.66488 | 33219 ft | 430 kts | 62° |
| 2026-04-30 21:19 | 58.48737 | 25.77198 | 33223 ft | 433 kts | 62° |
| 2026-04-30 21:19 | 58.50773 | 25.87939 | 33223 ft | 430 kts | 62° |
| 2026-04-30 21:20 | 58.52785 | 25.98614 | 33222 ft | 427 kts | 62° |
| 2026-04-30 21:20 | 58.54799 | 26.09350 | 33217 ft | 429 kts | 62° |
| 2026-04-30 21:21 | 58.56782 | 26.19988 | 33217 ft | 428 kts | 62° |
| 2026-04-30 21:22 | 58.59774 | 26.36142 | 33215 ft | 429 kts | 62° |
| 2026-04-30 21:23 | 58.63700 | 26.57559 | 33199 ft | 427 kts | 62° |
| 2026-04-30 21:23 | 58.66618 | 26.73630 | 33196 ft | 432 kts | 62° |
| 2026-04-30 21:24 | 58.68576 | 26.84501 | 33193 ft | 428 kts | 62° |
| 2026-04-30 21:24 | 58.70488 | 26.95178 | 33193 ft | 426 kts | 62° |
| 2026-04-30 21:25 | 58.73382 | 27.11438 | 33197 ft | 428 kts | 62° |
| 2026-04-30 21:26 | 58.76927 | 27.26789 | 33196 ft | 421 kts | 54° |
| 2026-04-30 21:27 | 58.80831 | 27.41690 | 33193 ft | 415 kts | 54° |
| 2026-04-30 21:27 | 58.83391 | 27.51675 | 33190 ft | 417 kts | 55° |
| 2026-04-30 21:28 | 58.87212 | 27.66777 | 33186 ft | 418 kts | 56° |
| 2026-04-30 21:29 | 58.90992 | 27.81868 | 33185 ft | 419 kts | 56° |
| 2026-04-30 21:30 | 58.97252 | 28.07119 | 33180 ft | 421 kts | 56° |
| 2026-04-30 21:31 | 59.03451 | 28.32445 | 33172 ft | 414 kts | 55° |
| 2026-04-30 21:32 | 59.07128 | 28.47588 | 33171 ft | 417 kts | 55° |
| 2026-04-30 21:32 | 59.09567 | 28.57703 | 33172 ft | 415 kts | 56° |
| 2026-04-30 21:33 | 59.13215 | 28.72907 | 33206 ft | 418 kts | 56° |
| 2026-04-30 21:34 | 59.15633 | 28.83053 | 33202 ft | 414 kts | 56° |
| 2026-04-30 21:34 | 59.19241 | 28.98268 | 33199 ft | 412 kts | 56° |
| 2026-04-30 21:35 | 59.21643 | 29.08450 | 33195 ft | 414 kts | 56° |
| 2026-04-30 21:35 | 59.24027 | 29.18609 | 33194 ft | 414 kts | 56° |
| 2026-04-30 21:36 | 59.26405 | 29.28791 | 33190 ft | 414 kts | 56° |
| 2026-04-30 21:37 | 59.31127 | 29.49153 | 33181 ft | 413 kts | 56° |
| 2026-04-30 21:37 | 59.33464 | 29.59308 | 33174 ft | 412 kts | 56° |
| 2026-04-30 21:38 | 59.35804 | 29.69514 | 33178 ft | 411 kts | 57° |
| 2026-04-30 21:38 | 59.38119 | 29.79663 | 33170 ft | 412 kts | 56° |
| 2026-04-30 21:39 | 59.40458 | 29.89961 | 33169 ft | 413 kts | 57° |
| 2026-04-30 21:39 | 59.42759 | 30.00158 | 33178 ft | 411 kts | 56° |
| 2026-04-30 21:40 | 59.45056 | 30.10376 | 33167 ft | 409 kts | 56° |
| 2026-04-30 21:40 | 59.47349 | 30.20622 | 33163 ft | 411 kts | 56° |
| 2026-04-30 21:41 | 59.49642 | 30.30917 | 33167 ft | 413 kts | 56° |
| 2026-04-30 21:41 | 59.51908 | 30.41154 | 33167 ft | 411 kts | 56° |
| 2026-04-30 21:42 | 59.54186 | 30.51485 | 33164 ft | 411 kts | 56° |
| 2026-04-30 21:42 | 59.56437 | 30.61745 | 33162 ft | 413 kts | 56° |
| 2026-04-30 21:43 | 59.58325 | 30.70396 | 33160 ft | 409 kts | 56° |
| 2026-04-30 21:43 | 59.60944 | 30.82439 | 33158 ft | 411 kts | 56° |
| 2026-04-30 21:44 | 59.63187 | 30.92818 | 33159 ft | 412 kts | 56° |
| 2026-04-30 21:44 | 59.65402 | 31.03125 | 33152 ft | 407 kts | 56° |
| 2026-04-30 21:45 | 59.67604 | 31.13508 | 33146 ft | 418 kts | 59° |
| 2026-04-30 21:45 | 59.69128 | 31.24629 | 33146 ft | 420 kts | 64° |
| 2026-04-30 21:46 | 59.70477 | 31.35949 | 33143 ft | 427 kts | 64° |
| 2026-04-30 21:46 | 59.71807 | 31.47311 | 33144 ft | 426 kts | 65° |
| 2026-04-30 21:47 | 59.73134 | 31.58743 | 33142 ft | 427 kts | 65° |
| 2026-04-30 21:47 | 59.74436 | 31.70106 | 33144 ft | 424 kts | 66° |
| 2026-04-30 21:48 | 59.75746 | 31.81579 | 33147 ft | 430 kts | 66° |
| 2026-04-30 21:48 | 59.77024 | 31.92951 | 33145 ft | 422 kts | 66° |
| 2026-04-30 21:49 | 59.78302 | 32.04345 | 33142 ft | 427 kts | 66° |
| 2026-04-30 21:49 | 59.79588 | 32.15924 | 33142 ft | 429 kts | 66° |
| 2026-04-30 21:50 | 59.80848 | 32.27361 | 33140 ft | 431 kts | 66° |
| 2026-04-30 21:50 | 59.82185 | 32.38839 | 33136 ft | 422 kts | 63° |
| 2026-04-30 21:51 | 59.83844 | 32.49999 | 33138 ft | 424 kts | 63° |
| 2026-04-30 21:51 | 59.85494 | 32.61265 | 33113 ft | 426 kts | 63° |
| 2026-04-30 21:52 | 59.87108 | 32.72482 | 33136 ft | 426 kts | 64° |
| 2026-04-30 21:52 | 59.88717 | 32.83770 | 33149 ft | 426 kts | 64° |
| 2026-04-30 21:53 | 59.90324 | 32.95155 | 33123 ft | 430 kts | 64° |
| 2026-04-30 21:53 | 59.91928 | 33.06606 | 33128 ft | 433 kts | 65° |
| 2026-04-30 21:54 | 59.93322 | 33.18183 | 33139 ft | 440 kts | 72° |
| 2026-04-30 21:54 | 59.93555 | 33.24347 | 33124 ft | 451 kts | 77° |
| 2026-04-30 21:54 | 59.93654 | 33.30598 | 33132 ft | 454 kts | 78° |
| 2026-04-30 21:55 | 59.93822 | 33.43111 | 33122 ft | 453 kts | 78° |
| 2026-04-30 21:55 | 59.93981 | 33.55667 | 33125 ft | 456 kts | 78° |
| 2026-04-30 21:56 | 59.94123 | 33.68156 | 33130 ft | 454 kts | 79° |
| 2026-04-30 21:56 | 59.94260 | 33.80819 | 33134 ft | 461 kts | 79° |
| 2026-04-30 21:57 | 59.94378 | 33.93440 | 33123 ft | 455 kts | 80° |
| 2026-04-30 21:57 | 59.94488 | 34.06006 | 33123 ft | 460 kts | 79° |
| 2026-04-30 21:58 | 59.94586 | 34.18763 | 33123 ft | 461 kts | 80° |
| 2026-04-30 21:58 | 59.94669 | 34.31455 | 33119 ft | 457 kts | 80° |
| 2026-04-30 21:59 | 59.94745 | 34.44132 | 33113 ft | 464 kts | 80° |
| 2026-04-30 22:00 | 59.94831 | 34.63335 | 33111 ft | 463 kts | 80° |
| 2026-04-30 22:00 | 59.94890 | 34.82536 | 33107 ft | 465 kts | 81° |
| 2026-04-30 22:01 | 59.94915 | 34.95399 | 33106 ft | 467 kts | 82° |
| 2026-04-30 22:01 | 59.94926 | 35.08330 | 33105 ft | 467 kts | 82° |
| 2026-04-30 22:02 | 59.94926 | 35.21180 | 33103 ft | 469 kts | 82° |
| 2026-04-30 22:02 | 59.95212 | 35.33948 | 33099 ft | 457 kts | 72° |
| 2026-04-30 22:03 | 59.96604 | 35.46214 | 33102 ft | 453 kts | 69° |
| 2026-04-30 22:03 | 59.98051 | 35.58407 | 33103 ft | 455 kts | 69° |
| 2026-04-30 22:04 | 59.99481 | 35.70686 | 33109 ft | 456 kts | 70° |
| 2026-04-30 22:05 | 60.01585 | 35.89089 | 33100 ft | 457 kts | 70° |
| 2026-04-30 22:05 | 60.02986 | 36.01512 | 33107 ft | 458 kts | 70° |
| 2026-04-30 22:06 | 60.04364 | 36.13867 | 33108 ft | 458 kts | 70° |
| 2026-04-30 22:06 | 60.06414 | 36.32470 | 33106 ft | 457 kts | 70° |
| 2026-04-30 22:07 | 60.07767 | 36.44888 | 33107 ft | 459 kts | 71° |
| 2026-04-30 22:07 | 60.09108 | 36.57313 | 33101 ft | 460 kts | 71° |
| 2026-04-30 22:08 | 60.10437 | 36.69762 | 33114 ft | 460 kts | 72° |
| 2026-04-30 22:08 | 60.11769 | 36.82328 | 33110 ft | 461 kts | 71° |
| 2026-04-30 22:09 | 60.13077 | 36.94787 | 33114 ft | 463 kts | 72° |
| 2026-04-30 22:09 | 60.14384 | 37.07349 | 33109 ft | 461 kts | 72° |
| 2026-04-30 22:10 | 60.15683 | 37.19969 | 33108 ft | 461 kts | 72° |
| 2026-04-30 22:10 | 60.16962 | 37.32520 | 33114 ft | 462 kts | 72° |
| 2026-04-30 22:11 | 60.18864 | 37.51421 | 33109 ft | 460 kts | 72° |
| 2026-04-30 22:12 | 60.20110 | 37.63961 | 33116 ft | 462 kts | 72° |
| 2026-04-30 22:12 | 60.21354 | 37.76610 | 33119 ft | 463 kts | 73° |
| 2026-04-30 22:13 | 60.22584 | 37.89254 | 33112 ft | 463 kts | 73° |
| 2026-04-30 22:13 | 60.23810 | 38.01980 | 33107 ft | 464 kts | 73° |
| 2026-04-30 22:14 | 60.25014 | 38.14624 | 33108 ft | 463 kts | 73° |
| 2026-04-30 22:14 | 60.26220 | 38.27370 | 33108 ft | 466 kts | 73° |
| 2026-04-30 22:15 | 60.27425 | 38.40133 | 33099 ft | 464 kts | 73° |
| 2026-04-30 22:15 | 60.28624 | 38.52957 | 33095 ft | 467 kts | 73° |
| 2026-04-30 22:16 | 60.29798 | 38.65689 | 33097 ft | 466 kts | 74° |
| 2026-04-30 22:17 | 60.32133 | 38.91409 | 33103 ft | 468 kts | 75° |
| 2026-04-30 22:17 | 60.33854 | 39.10744 | 33099 ft | 470 kts | 75° |
| 2026-04-30 22:18 | 60.35551 | 39.30161 | 33102 ft | 469 kts | 75° |
| 2026-04-30 22:19 | 60.37220 | 39.49605 | 33103 ft | 470 kts | 75° |
| 2026-04-30 22:20 | 60.38864 | 39.69092 | 33096 ft | 471 kts | 76° |
| 2026-04-30 22:20 | 60.40486 | 39.88682 | 33093 ft | 473 kts | 76° |
| 2026-04-30 22:21 | 60.41547 | 40.01711 | 33097 ft | 472 kts | 76° |
| 2026-04-30 22:21 | 60.42600 | 40.14805 | 33100 ft | 473 kts | 76° |
| 2026-04-30 22:22 | 60.43650 | 40.28028 | 33095 ft | 473 kts | 76° |
| 2026-04-30 22:22 | 60.44684 | 40.41206 | 33094 ft | 474 kts | 76° |
| 2026-04-30 22:23 | 60.45709 | 40.54471 | 33094 ft | 474 kts | 77° |
| 2026-04-30 22:23 | 60.46717 | 40.67679 | 33095 ft | 476 kts | 77° |
| 2026-04-30 22:24 | 60.47711 | 40.80893 | 33094 ft | 477 kts | 78° |
| 2026-04-30 22:24 | 60.48692 | 40.94109 | 33091 ft | 477 kts | 78° |
| 2026-04-30 22:25 | 60.49652 | 41.07382 | 33088 ft | 478 kts | 78° |
| 2026-04-30 22:25 | 60.50592 | 41.20736 | 33090 ft | 478 kts | 78° |
| 2026-04-30 22:26 | 60.51985 | 41.40896 | 33087 ft | 479 kts | 78° |
| 2026-04-30 22:27 | 60.52895 | 41.54310 | 33091 ft | 480 kts | 78° |
| 2026-04-30 22:27 | 60.54234 | 41.74430 | 33091 ft | 481 kts | 79° |
| 2026-04-30 22:28 | 60.55548 | 41.94645 | 33092 ft | 482 kts | 79° |
| 2026-04-30 22:29 | 60.57257 | 42.21706 | 33090 ft | 482 kts | 80° |
| 2026-04-30 22:31 | 60.60126 | 42.69391 | 33094 ft | 483 kts | 81° |
| 2026-04-30 22:32 | 60.62062 | 43.03325 | 33093 ft | 485 kts | 81° |
| 2026-04-30 22:33 | 60.63928 | 43.37614 | 33098 ft | 486 kts | 81° |
| 2026-04-30 22:35 | 60.65714 | 43.72081 | 33099 ft | 487 kts | 82° |
| 2026-04-30 22:36 | 60.67432 | 44.06386 | 33092 ft | 487 kts | 82° |
| 2026-04-30 22:37 | 60.68765 | 44.34059 | 33094 ft | 489 kts | 82° |
| 2026-04-30 22:38 | 60.70042 | 44.61826 | 33089 ft | 489 kts | 83° |
| 2026-04-30 22:39 | 60.70956 | 44.82525 | 33094 ft | 490 kts | 83° |
| 2026-04-30 22:40 | 60.72702 | 45.24182 | 33094 ft | 492 kts | 84° |
| 2026-04-30 22:41 | 60.74079 | 45.59090 | 33095 ft | 493 kts | 84° |
| 2026-04-30 22:43 | 60.75630 | 46.01139 | 33090 ft | 494 kts | 85° |
| 2026-04-30 22:44 | 60.76592 | 46.29239 | 33098 ft | 495 kts | 85° |
| 2026-04-30 22:45 | 60.77708 | 46.71683 | 33093 ft | 498 kts | 86° |
| 2026-04-30 22:47 | 60.78702 | 47.14058 | 33090 ft | 498 kts | 87° |
| 2026-04-30 22:48 | 60.79295 | 47.42429 | 33093 ft | 500 kts | 87° |
| 2026-04-30 22:49 | 60.80078 | 47.85176 | 33091 ft | 501 kts | 88° |
| 2026-04-30 22:51 | 60.80727 | 48.28070 | 33091 ft | 502 kts | 88° |
| 2026-04-30 22:52 | 60.81009 | 48.49604 | 33089 ft | 503 kts | 88° |
| 2026-04-30 22:53 | 60.81348 | 48.78245 | 33089 ft | 503 kts | 89° |
| 2026-04-30 22:53 | 60.81560 | 48.99645 | 33089 ft | 504 kts | 90° |
| 2026-04-30 22:55 | 60.81839 | 49.35565 | 33093 ft | 504 kts | 90° |
| 2026-04-30 22:56 | 60.81994 | 49.64353 | 33086 ft | 505 kts | 90° |
| 2026-04-30 22:57 | 60.82106 | 50.00255 | 33089 ft | 506 kts | 91° |
| 2026-04-30 22:58 | 60.82145 | 50.29111 | 33098 ft | 506 kts | 91° |
| 2026-04-30 22:59 | 60.82086 | 50.72471 | 33088 ft | 506 kts | 92° |